createdAt,value
2023-04-28T00:00:06.189Z,8.63
2023-04-28T00:02:34.780Z,7.93
2023-04-28T00:05:03.818Z,7.97
2023-04-28T00:07:32.108Z,6.80
2023-04-28T00:10:00.039Z,6.43
2023-04-28T00:12:28.055Z,9.30
2023-04-28T00:14:56.033Z,7.37
2023-04-28T00:17:25.403Z,9.63
2023-04-28T00:19:53.847Z,7.60
2023-04-28T00:22:21.885Z,10.40
2023-04-28T00:24:49.901Z,9.90
2023-04-28T00:27:17.901Z,9.17
2023-04-28T00:29:45.922Z,7.70
2023-04-28T00:32:14.238Z,15.43
2023-04-28T00:34:43.611Z,9.37
2023-04-28T00:37:11.725Z,10.83
2023-04-28T00:39:41.506Z,8.27
2023-04-28T00:42:09.496Z,7.10
2023-04-28T00:44:37.427Z,7.40
2023-04-28T00:47:05.653Z,15.00
2023-04-28T00:49:34.851Z,8.83
2023-04-28T00:52:06.944Z,9.97
2023-04-28T00:54:34.937Z,12.80
2023-04-28T00:57:04.727Z,9.63
2023-04-28T00:59:32.874Z,9.40
2023-04-28T01:02:02.467Z,10.30
2023-04-28T01:04:31.292Z,12.17
2023-04-28T01:07:01.639Z,10.93
2023-04-28T01:09:31.064Z,11.43
2023-04-28T01:12:00.003Z,8.33
2023-04-28T01:14:40.431Z,8.50
2023-04-28T01:17:09.693Z,7.63
2023-04-28T01:19:38.395Z,11.27
2023-04-28T01:22:06.469Z,11.10
2023-04-28T01:24:35.839Z,8.00
2023-04-28T01:27:07.041Z,8.70
2023-04-28T01:29:35.001Z,7.73
2023-04-28T01:32:03.524Z,9.77
2023-04-28T01:34:31.582Z,8.57
2023-04-28T01:36:59.542Z,8.50
2023-04-28T01:39:27.564Z,7.43
2023-04-28T01:41:56.891Z,10.37
2023-04-28T01:44:25.390Z,8.40
2023-04-28T01:46:53.356Z,13.33
2023-04-28T01:49:23.964Z,9.70
2023-04-28T01:51:51.955Z,10.97
2023-04-28T01:54:19.944Z,11.63
2023-04-28T01:56:47.882Z,10.47
2023-04-28T01:59:20.367Z,9.73
2023-04-28T02:01:48.570Z,11.57
2023-04-28T02:04:18.013Z,10.57
2023-04-28T02:06:46.227Z,6.07
2023-04-28T02:09:14.381Z,9.00
2023-04-28T02:11:42.362Z,8.53
2023-04-28T02:14:10.357Z,10.73
2023-04-28T02:16:39.623Z,8.40
2023-04-28T02:19:07.680Z,9.40
2023-04-28T02:21:35.635Z,8.20
2023-04-28T02:24:03.608Z,12.13
2023-04-28T02:26:32.547Z,8.70
2023-04-28T02:29:01.054Z,10.13
2023-04-28T02:31:29.083Z,9.47
2023-04-28T02:33:58.582Z,7.87
2023-04-28T02:36:27.760Z,10.10
2023-04-28T02:38:55.792Z,7.93
2023-04-28T02:41:23.849Z,10.83
2023-04-28T02:43:51.870Z,10.67
2023-04-28T02:46:19.939Z,11.00
2023-04-28T02:48:47.881Z,16.40
2023-04-28T02:51:17.285Z,7.50
2023-04-28T02:53:45.233Z,12.60
2023-04-28T02:56:13.204Z,9.40
2023-04-28T02:58:41.190Z,11.50
2023-04-28T03:01:09.384Z,9.00
2023-04-28T03:03:37.582Z,9.47
2023-04-28T03:06:06.373Z,8.37
2023-04-28T03:08:35.718Z,8.60
2023-04-28T03:11:03.766Z,9.00
2023-04-28T03:13:31.980Z,10.10
2023-04-28T03:15:59.946Z,8.77
2023-04-28T03:18:29.077Z,10.03
2023-04-28T03:20:57.216Z,5.90
2023-04-28T03:23:27.218Z,8.70
2023-04-28T03:25:56.606Z,7.90
2023-04-28T03:28:26.392Z,6.77
2023-04-28T03:30:54.408Z,11.60
2023-04-28T03:33:22.558Z,6.53
2023-04-28T03:35:50.964Z,5.50
2023-04-28T03:38:19.008Z,13.63
2023-04-28T03:40:47.159Z,7.63
2023-04-28T03:43:17.117Z,6.63
2023-04-28T03:46:05.723Z,11.03
2023-04-28T03:48:34.491Z,6.93
2023-04-28T03:51:02.558Z,9.67
2023-04-28T03:53:30.882Z,10.17
2023-04-28T03:55:58.899Z,8.43
2023-04-28T03:58:28.463Z,8.13
2023-04-28T04:00:56.450Z,9.43
2023-04-28T04:03:26.447Z,9.47
2023-04-28T04:05:57.244Z,10.50
2023-04-28T04:08:25.410Z,7.33
2023-04-28T04:10:55.792Z,8.10
2023-04-28T04:13:23.770Z,7.43
2023-04-28T04:15:53.586Z,11.77
2023-04-28T04:18:24.296Z,9.70
2023-04-28T04:21:21.626Z,8.80
2023-04-28T04:23:51.752Z,14.60
2023-04-28T04:26:19.876Z,8.23
2023-04-28T04:28:49.954Z,9.03
2023-04-28T04:31:19.523Z,14.53
2023-04-28T04:33:48.318Z,9.97
2023-04-28T04:36:18.234Z,12.80
2023-04-28T04:38:46.998Z,12.40
2023-04-28T04:41:20.583Z,10.63
2023-04-28T04:43:49.345Z,13.80
2023-04-28T04:46:19.128Z,4.67
2023-04-28T04:48:47.205Z,7.97
2023-04-28T04:51:15.224Z,6.00
2023-04-28T04:53:43.453Z,11.30
2023-04-28T04:56:11.630Z,8.93
2023-04-28T04:58:39.668Z,9.50
2023-04-28T05:01:27.348Z,14.13
2023-04-28T05:03:55.475Z,7.40
2023-04-28T05:06:24.148Z,7.30
2023-04-28T05:08:52.155Z,16.07
2023-04-28T05:11:20.293Z,5.70
2023-04-28T05:13:48.494Z,5.30
2023-04-28T05:16:16.808Z,8.60
2023-04-28T05:18:56.118Z,11.27
2023-04-28T05:21:24.270Z,9.20
2023-04-28T05:23:53.701Z,8.83
2023-04-28T05:26:22.620Z,8.70
2023-04-28T05:28:54.307Z,9.20
2023-04-28T05:31:22.387Z,9.47
2023-04-28T05:33:50.792Z,8.07
2023-04-28T05:36:20.184Z,6.97
2023-04-28T05:38:48.267Z,9.57
2023-04-28T05:41:16.293Z,10.70
2023-04-28T05:43:44.255Z,9.27
2023-04-28T05:46:28.484Z,11.97
2023-04-28T05:48:58.720Z,16.13
2023-04-28T05:51:29.538Z,9.10
2023-04-28T05:53:58.112Z,10.77
2023-04-28T05:56:27.892Z,8.20
2023-04-28T05:58:56.732Z,9.03
2023-04-28T06:01:24.737Z,9.30
2023-04-28T06:03:56.412Z,12.33
2023-04-28T06:06:24.861Z,10.23
2023-04-28T06:08:54.742Z,11.70
2023-04-28T06:11:23.183Z,10.40
2023-04-28T06:13:51.557Z,8.30
2023-04-28T06:16:20.260Z,9.13
2023-04-28T06:18:49.894Z,8.47
2023-04-28T06:21:19.376Z,9.10
2023-04-28T06:23:47.340Z,9.03
2023-04-28T06:26:18.351Z,10.73
2023-04-28T06:28:46.882Z,8.07
2023-04-28T06:31:15.017Z,10.43
2023-04-28T06:33:43.101Z,6.40
2023-04-28T06:36:13.840Z,9.03
2023-04-28T06:38:42.969Z,8.63
2023-04-28T06:41:11.397Z,17.27
2023-04-28T06:43:41.566Z,6.83
2023-04-28T06:46:12.900Z,8.40
2023-04-28T06:48:40.916Z,6.53
2023-04-28T06:51:09.360Z,6.30
2023-04-28T06:53:38.024Z,6.83
2023-04-28T06:56:11.199Z,6.07
2023-04-28T06:58:41.207Z,5.17
2023-04-28T07:01:09.722Z,5.07
2023-04-28T07:03:38.904Z,6.90
2023-04-28T07:06:07.522Z,6.83
2023-04-28T07:08:36.430Z,9.90
2023-04-28T07:11:05.142Z,8.43
2023-04-28T07:13:33.415Z,4.50
2023-04-28T07:16:02.944Z,6.43
2023-04-28T07:18:30.940Z,4.27
2023-04-28T07:20:58.940Z,7.63
2023-04-28T07:23:26.897Z,9.10
2023-04-28T07:25:54.929Z,7.43
2023-04-28T07:28:23.146Z,6.50
2023-04-28T07:30:51.123Z,7.07
2023-04-28T07:33:20.927Z,5.70
2023-04-28T07:35:49.573Z,7.97
2023-04-28T07:38:18.808Z,8.10
2023-04-28T07:40:47.582Z,10.40
2023-04-28T07:43:15.690Z,6.20
2023-04-28T07:45:45.652Z,10.27
2023-04-28T07:48:13.873Z,12.70
2023-04-28T07:50:43.241Z,8.37
2023-04-28T07:53:11.276Z,13.77
2023-04-28T07:55:41.879Z,7.17
2023-04-28T07:58:10.132Z,8.73
2023-04-28T08:00:39.741Z,13.80
2023-04-28T08:03:09.190Z,6.73
2023-04-28T08:05:37.659Z,12.00
2023-04-28T08:08:07.121Z,7.57
2023-04-28T08:10:35.130Z,11.17
2023-04-28T08:13:03.512Z,14.53
2023-04-28T08:15:31.888Z,13.80
2023-04-28T08:17:59.976Z,8.03
2023-04-28T08:20:28.068Z,8.10
2023-04-28T08:22:56.221Z,8.53
2023-04-28T08:25:25.792Z,8.57
2023-04-28T08:27:57.229Z,12.33
2023-04-28T08:30:25.714Z,10.40
2023-04-28T08:32:54.086Z,8.47
2023-04-28T08:35:22.121Z,8.37
2023-04-28T08:37:50.220Z,11.60
2023-04-28T08:40:18.412Z,11.23
2023-04-28T08:42:48.598Z,8.10
2023-04-28T08:45:17.101Z,10.27
2023-04-28T08:47:47.592Z,8.50
2023-04-28T08:50:16.028Z,10.53
2023-04-28T08:52:44.329Z,10.70
2023-04-28T08:55:13.738Z,11.73
2023-04-28T08:57:45.650Z,7.20
2023-04-28T09:00:15.790Z,10.50
2023-04-28T09:02:43.994Z,9.13
2023-04-28T09:05:13.387Z,9.20
2023-04-28T09:07:42.109Z,9.93
2023-04-28T09:10:28.172Z,11.23
2023-04-28T09:12:57.963Z,9.67
2023-04-28T09:15:34.105Z,15.57
2023-04-28T09:18:03.947Z,8.00
2023-04-28T09:20:33.731Z,11.37
2023-04-28T09:23:15.922Z,10.40
2023-04-28T09:26:00.583Z,7.33
2023-04-28T09:28:28.688Z,9.83
2023-04-28T09:30:58.309Z,11.77
2023-04-28T09:33:26.821Z,12.90
2023-04-28T09:35:55.266Z,11.63
2023-04-28T09:38:24.468Z,9.17
2023-04-28T09:40:54.678Z,9.67
2023-04-28T09:43:30.419Z,13.77
2023-04-28T09:46:01.242Z,9.73
2023-04-28T09:48:31.855Z,10.70
2023-04-28T09:51:00.652Z,9.00
2023-04-28T09:53:29.537Z,12.73
2023-04-28T09:55:59.791Z,8.53
2023-04-28T09:58:29.850Z,7.90
2023-04-28T10:01:00.834Z,8.87
2023-04-28T10:03:30.889Z,8.37
2023-04-28T10:05:59.956Z,6.87
2023-04-28T10:08:28.511Z,9.17
2023-04-28T10:10:57.800Z,10.67
2023-04-28T10:13:25.973Z,8.67
2023-04-28T10:15:55.441Z,7.33
2023-04-28T10:18:25.774Z,12.93
2023-04-28T10:20:58.166Z,8.60
2023-04-28T10:23:51.378Z,7.67
2023-04-28T10:26:21.905Z,7.50
2023-04-28T10:28:52.043Z,7.97
2023-04-28T10:31:22.617Z,7.73
2023-04-28T10:33:52.168Z,9.40
2023-04-28T10:36:48.655Z,9.00
2023-04-28T10:39:16.829Z,5.80
2023-04-28T10:41:47.264Z,5.63
2023-04-28T10:44:43.746Z,8.10
2023-04-28T10:47:12.206Z,6.50
2023-04-28T10:50:07.231Z,7.10
2023-04-28T10:52:51.402Z,7.53
2023-04-28T10:55:33.244Z,8.53
2023-04-28T10:58:32.916Z,7.50
2023-04-28T11:01:26.585Z,7.17
2023-04-28T11:04:00.544Z,11.70
2023-04-28T11:06:34.475Z,7.87
2023-04-28T11:09:04.003Z,8.07
2023-04-28T11:11:34.757Z,6.57
2023-04-28T11:14:33.276Z,7.83
2023-04-28T11:17:03.523Z,7.07
2023-04-28T11:19:33.104Z,7.80
2023-04-28T11:22:04.259Z,9.57
2023-04-28T11:24:32.544Z,8.47
2023-04-28T11:27:02.203Z,8.23
2023-04-28T11:29:35.129Z,7.70
2023-04-28T11:32:03.711Z,7.43
2023-04-28T11:34:31.867Z,7.33
2023-04-28T11:37:00.171Z,8.03
2023-04-28T11:39:32.561Z,8.57
2023-04-28T11:42:02.216Z,5.77
2023-04-28T11:44:31.905Z,6.33
2023-04-28T11:47:02.762Z,6.10
2023-04-28T11:49:33.811Z,5.60
2023-04-28T11:52:06.508Z,5.10
2023-04-28T11:54:37.038Z,13.17
2023-04-28T11:57:05.869Z,9.20
2023-04-28T11:59:35.357Z,4.30
2023-04-28T12:02:04.592Z,7.53
2023-04-28T12:04:35.776Z,6.57
2023-04-28T12:07:05.975Z,4.37
2023-04-28T12:09:36.091Z,4.30
2023-04-28T12:12:05.895Z,7.40
2023-04-28T12:14:39.711Z,4.50
2023-04-28T12:17:07.656Z,17.10
2023-04-28T12:19:45.796Z,6.47
2023-04-28T12:22:17.401Z,3.87
2023-04-28T12:24:47.036Z,5.77
2023-04-28T12:27:21.612Z,4.63
2023-04-28T12:29:49.804Z,3.50
2023-04-28T12:32:19.047Z,6.27
2023-04-28T12:34:48.133Z,3.53
2023-04-28T12:37:16.874Z,3.30
2023-04-28T12:39:46.567Z,4.43
2023-04-28T12:42:14.914Z,3.57
2023-04-28T12:44:42.865Z,4.73
2023-04-28T12:47:12.171Z,3.97
2023-04-28T12:49:40.458Z,3.00
2023-04-28T12:52:08.460Z,2.60
2023-04-28T12:54:36.767Z,2.80
2023-04-28T12:57:06.473Z,3.13
2023-04-28T12:59:34.752Z,2.60
2023-04-28T13:02:02.988Z,3.43
2023-04-28T13:04:33.722Z,2.37
2023-04-28T13:07:02.419Z,2.43
2023-04-28T13:09:30.648Z,2.93
2023-04-28T13:11:58.714Z,2.57
2023-04-28T13:14:29.060Z,1.97
2023-04-28T13:16:57.603Z,2.20
2023-04-28T13:19:25.689Z,2.97
2023-04-28T13:21:53.707Z,3.20
2023-04-28T13:24:21.701Z,3.17
2023-04-28T13:26:49.849Z,2.13
2023-04-28T13:29:18.168Z,4.63
2023-04-28T13:31:47.578Z,2.87
2023-04-28T13:34:17.795Z,2.40
2023-04-28T13:36:48.085Z,2.40
2023-04-28T13:39:16.225Z,2.83
2023-04-28T13:41:44.276Z,2.70
2023-04-28T13:44:12.286Z,2.20
2023-04-28T13:46:40.294Z,2.10
2023-04-28T13:49:11.031Z,2.47
2023-04-28T13:51:39.286Z,2.03
2023-04-28T13:54:10.472Z,1.80
2023-04-28T13:56:38.695Z,1.60
2023-04-28T13:59:07.223Z,1.33
2023-04-28T14:01:35.268Z,1.87
2023-04-28T14:04:03.583Z,1.77
2023-04-28T14:06:34.740Z,1.20
2023-04-28T14:09:03.580Z,1.67
2023-04-28T14:11:31.690Z,1.30
2023-04-28T14:13:59.650Z,1.30
2023-04-28T14:16:30.379Z,2.40
2023-04-28T14:18:59.894Z,7.00
2023-04-28T14:21:28.361Z,1.80
2023-04-28T14:23:57.798Z,6.43
2023-04-28T14:26:26.045Z,2.13
2023-04-28T14:28:54.848Z,1.33
2023-04-28T14:31:22.811Z,2.63
2023-04-28T14:33:50.915Z,1.40
2023-04-28T14:36:18.933Z,1.10
2023-04-28T14:38:46.983Z,1.30
2023-04-28T14:41:16.338Z,1.57
2023-04-28T14:43:44.849Z,1.40
2023-04-28T14:46:12.890Z,1.50
2023-04-28T14:48:40.936Z,1.33
2023-04-28T14:51:09.047Z,1.20
2023-04-28T14:53:37.042Z,3.00
2023-04-28T14:56:17.915Z,4.57
2023-04-28T14:58:48.845Z,2.93
2023-04-28T15:01:17.699Z,4.40
2023-04-28T15:03:46.044Z,2.73
2023-04-28T15:06:14.230Z,2.23
2023-04-28T15:08:42.217Z,2.00
2023-04-28T15:11:10.348Z,2.20
2023-04-28T15:13:38.832Z,2.67
2023-04-28T15:16:09.868Z,3.10
2023-04-28T15:18:38.334Z,3.23
2023-04-28T15:21:08.467Z,2.70
2023-04-28T15:23:36.655Z,3.30
2023-04-28T15:26:04.844Z,4.47
2023-04-28T15:28:32.912Z,5.30
2023-04-28T15:31:00.960Z,2.33
2023-04-28T15:33:30.599Z,5.17
2023-04-28T15:35:58.619Z,2.10
2023-04-28T15:38:29.878Z,3.17
2023-04-28T15:40:58.100Z,1.80
2023-04-28T15:43:26.264Z,1.77
2023-04-28T15:45:54.326Z,2.17
2023-04-28T15:48:23.197Z,2.10
2023-04-28T15:50:52.560Z,2.27
2023-04-28T15:53:21.298Z,3.17
2023-04-28T15:55:49.444Z,2.30
2023-04-28T15:58:17.387Z,3.13
2023-04-28T16:00:46.329Z,2.97
2023-04-28T16:03:14.403Z,3.10
2023-04-28T16:05:42.689Z,3.20
2023-04-28T16:08:12.367Z,4.80
2023-04-28T16:10:42.293Z,4.30
2023-04-28T16:13:12.178Z,3.70
2023-04-28T16:15:41.735Z,4.57
2023-04-28T16:18:09.952Z,4.20
2023-04-28T16:20:38.006Z,4.73
2023-04-28T16:23:06.840Z,5.50
2023-04-28T16:25:36.556Z,5.00
2023-04-28T16:28:04.633Z,4.90
2023-04-28T16:30:34.135Z,4.80
2023-04-28T16:33:02.218Z,3.07
2023-04-28T16:35:30.327Z,3.37
2023-04-28T16:37:58.263Z,3.97
2023-04-28T16:40:26.513Z,3.90
2023-04-28T16:42:55.945Z,5.03
2023-04-28T16:45:24.555Z,3.80
2023-04-28T16:47:52.623Z,5.43
2023-04-28T16:50:22.214Z,3.77
2023-04-28T16:52:51.356Z,5.93
2023-04-28T16:55:19.311Z,2.20
2023-04-28T16:57:47.285Z,2.40
2023-04-28T17:00:17.796Z,2.77
2023-04-28T17:02:45.959Z,3.80
2023-04-28T17:05:14.241Z,2.53
2023-04-28T17:07:42.318Z,3.07
2023-04-28T17:10:11.108Z,3.73
2023-04-28T17:12:39.654Z,4.43
2023-04-28T17:15:09.345Z,3.90
2023-04-28T17:17:39.896Z,3.80
2023-04-28T17:20:09.201Z,3.20
2023-04-28T17:22:37.166Z,3.67
2023-04-28T17:25:06.118Z,3.30
2023-04-28T17:27:34.084Z,4.03
2023-04-28T17:30:02.004Z,3.70
2023-04-28T17:32:32.821Z,5.00
2023-04-28T17:35:03.131Z,7.40
2023-04-28T17:37:32.641Z,4.47
2023-04-28T17:40:00.682Z,4.17
2023-04-28T17:42:31.700Z,3.73
2023-04-28T17:44:59.863Z,6.07
2023-04-28T17:47:27.846Z,9.13
2023-04-28T17:50:00.354Z,4.50
2023-04-28T17:52:29.953Z,6.80
2023-04-28T17:55:00.929Z,5.27
2023-04-28T17:57:29.605Z,7.20
2023-04-28T18:00:00.587Z,3.33
2023-04-28T18:02:29.023Z,3.47
2023-04-28T18:04:57.077Z,4.73
2023-04-28T18:07:25.887Z,5.80
2023-04-28T18:10:00.649Z,4.53
2023-04-28T18:12:29.476Z,3.83
2023-04-28T18:14:57.942Z,4.97
2023-04-28T18:17:26.584Z,7.63
2023-04-28T18:19:57.070Z,5.17
2023-04-28T18:22:25.227Z,5.90
2023-04-28T18:24:55.294Z,5.53
2023-04-28T18:27:23.384Z,4.03
2023-04-28T18:29:51.702Z,4.00
2023-04-28T18:32:19.919Z,5.00
2023-04-28T18:34:51.679Z,5.60
2023-04-28T18:37:33.567Z,4.17
2023-04-28T18:40:03.992Z,5.73
2023-04-28T18:42:33.030Z,7.73
2023-04-28T18:45:01.296Z,5.67
2023-04-28T18:47:29.551Z,6.10
2023-04-28T18:50:00.454Z,5.73
2023-04-28T18:52:28.740Z,6.17
2023-04-28T18:54:58.571Z,7.13
2023-04-28T18:57:28.395Z,7.63
2023-04-28T18:59:59.688Z,4.40
2023-04-28T19:02:28.759Z,6.87
2023-04-28T19:04:56.983Z,5.07
2023-04-28T19:07:25.111Z,5.33
2023-04-28T19:09:58.698Z,4.67
2023-04-28T19:12:28.218Z,6.87
2023-04-28T19:14:56.554Z,6.77
2023-04-28T19:17:24.813Z,6.53
2023-04-28T19:19:56.042Z,7.10
2023-04-28T19:22:34.736Z,7.23
2023-04-28T19:25:04.133Z,7.93
2023-04-28T19:27:35.350Z,6.93
2023-04-28T19:30:04.858Z,7.80
2023-04-28T19:32:33.665Z,6.63
2023-04-28T19:35:02.101Z,10.80
2023-04-28T19:37:30.196Z,24.63
2023-04-28T19:39:58.311Z,6.60
2023-04-28T19:42:26.456Z,7.33
2023-04-28T19:44:58.010Z,9.10
2023-04-28T19:47:26.494Z,6.60
2023-04-28T19:49:54.713Z,6.67
2023-04-28T19:52:23.514Z,6.47
2023-04-28T19:54:52.314Z,5.60
2023-04-28T19:57:20.750Z,4.77
2023-04-28T19:59:49.500Z,6.53
2023-04-28T20:02:20.979Z,4.43
2023-04-28T20:04:49.791Z,5.03
2023-04-28T20:07:17.852Z,4.90
2023-04-28T20:09:45.936Z,4.77
2023-04-28T20:12:15.235Z,5.40
2023-04-28T20:14:43.350Z,4.43
2023-04-28T20:17:11.401Z,7.20
2023-04-28T20:19:40.836Z,6.13
2023-04-28T20:22:09.024Z,6.77
2023-04-28T20:24:39.407Z,8.57
2023-04-28T20:27:07.883Z,10.73
2023-04-28T20:29:37.051Z,11.47
2023-04-28T20:32:06.328Z,5.67
2023-04-28T20:34:34.975Z,6.20
2023-04-28T20:37:06.423Z,5.00
2023-04-28T20:39:34.600Z,5.43
2023-04-28T20:42:03.408Z,5.77
2023-04-28T20:44:31.365Z,7.40
2023-04-28T20:47:01.447Z,5.93
2023-04-28T20:49:29.675Z,4.87
2023-04-28T20:52:05.929Z,4.83
2023-04-28T20:54:35.538Z,4.23
2023-04-28T20:57:04.724Z,5.33
2023-04-28T20:59:33.213Z,5.53
2023-04-28T21:02:01.300Z,4.47
2023-04-28T21:04:29.312Z,6.33
2023-04-28T21:06:57.381Z,4.70
2023-04-28T21:09:26.739Z,4.90
2023-04-28T21:11:54.971Z,5.90
2023-04-28T21:14:22.922Z,6.90
2023-04-28T21:16:53.803Z,5.53
2023-04-28T21:19:21.923Z,5.07
2023-04-28T21:21:49.892Z,7.07
2023-04-28T21:24:17.837Z,4.53
2023-04-28T21:26:47.536Z,6.33
2023-04-28T21:29:15.644Z,7.00
2023-04-28T21:31:43.684Z,7.07
2023-04-28T21:34:11.709Z,7.00
2023-04-28T21:36:40.352Z,6.90
2023-04-28T21:39:08.346Z,9.17
2023-04-28T21:41:36.316Z,7.97
2023-04-28T21:44:06.020Z,7.60
2023-04-28T21:46:34.160Z,6.33
2023-04-28T21:49:02.283Z,7.73
2023-04-28T21:51:31.953Z,7.23
2023-04-28T21:53:59.934Z,8.50
2023-04-28T21:56:27.843Z,10.03
2023-04-28T21:58:55.925Z,9.80
2023-04-28T22:01:25.485Z,11.13
2023-04-28T22:03:54.946Z,8.30
2023-04-28T22:06:23.214Z,9.13
2023-04-28T22:08:51.455Z,11.30
2023-04-28T22:11:19.397Z,11.40
2023-04-28T22:13:47.425Z,9.07
2023-04-28T22:16:16.233Z,10.07
2023-04-28T22:18:45.635Z,9.97
2023-04-28T22:21:13.923Z,11.43
2023-04-28T22:23:41.974Z,12.80
2023-04-28T22:26:09.929Z,11.07
2023-04-28T22:28:38.401Z,12.63
2023-04-28T22:31:06.473Z,12.13
2023-04-28T22:33:34.721Z,11.43
2023-04-28T22:36:04.016Z,16.47
2023-04-28T22:38:32.069Z,14.80
2023-04-28T22:41:00.090Z,16.47
2023-04-28T22:43:28.791Z,13.47
2023-04-28T22:45:58.550Z,14.27
2023-04-28T22:48:26.525Z,12.83
2023-04-28T22:50:54.477Z,15.97
2023-04-28T22:53:24.119Z,14.70
2023-04-28T22:55:56.691Z,14.90
2023-04-28T22:58:24.705Z,12.80
2023-04-28T23:00:52.862Z,13.97
2023-04-28T23:03:21.294Z,13.27
2023-04-28T23:05:49.380Z,13.10
2023-04-28T23:08:17.305Z,11.20
2023-04-28T23:10:46.633Z,17.10
2023-04-28T23:13:14.575Z,14.10
2023-04-28T23:15:42.778Z,15.77
2023-04-28T23:18:10.780Z,16.30
2023-04-28T23:20:38.768Z,16.70
2023-04-28T23:23:06.670Z,12.20
2023-04-28T23:25:34.763Z,17.30
2023-04-28T23:28:04.285Z,15.63
2023-04-28T23:30:32.347Z,16.20
2023-04-28T23:33:00.379Z,15.47
2023-04-28T23:35:28.408Z,19.23
2023-04-28T23:37:56.450Z,19.27
2023-04-28T23:40:24.381Z,19.80
2023-04-28T23:42:52.390Z,22.87
2023-04-28T23:45:21.706Z,22.87
2023-04-28T23:47:49.769Z,29.13
2023-04-28T23:50:18.262Z,28.83
2023-04-28T23:52:46.209Z,28.27
2023-04-28T23:55:14.248Z,32.87
2023-04-28T23:57:42.339Z,36.13
